^^
Meteo Knjazevac Station Historical Data
Daily Summary for February 21, 2021 Units:  Both    English   Metric
Daily Weekly Monthly Yearly Custom
  High: Low: Average:
Temperature: 49.6 °F /  9.8 °C 35.4 °F /  1.9 °C 42 °F /  5.6 °C
Dew Point: 40.3 °F /  4.6 °C 32.8 °F /  0.4 °C 36.4 °F /  2.4 °C
Humidity: 91% 68% 81%
Wind Speed: 7mph /  11.3km/h - 2.6mph /  4.2km/h
Wind Gust: 15mph /  24.1km/h - -
Wind- - SSE
Pressure: 30.27 in /  1024.9 hPa 30.17 in /  1021.6 hPa -
Precipitation: 0.00 in /  0 mm    
Historical Graphs
 
 
Tabular Data for February 21, 2021
Time Temperature Dew Point Pressure Wind Wind Speed Wind Gust Humidity Rainfall Rate (Hourly) solar Conditions
00:00 37 °F /  2.8 °C 34.4 °F /  1.3 °C 30.27in /  1024.9hPa Calm   5mph /  8km/h 90% 0.00in /  0mm 0 W/m2
00:10 36.7 °F /  2.6 °C 34.1 °F /  1.2 °C 30.26in /  1024.6hPa NNW 1mph /  1.6km/h 3mph /  4.8km/h 90% 0.00in /  0mm 0 W/m2
00:20 37 °F /  2.8 °C 34.4 °F /  1.3 °C 30.26in /  1024.6hPa South 1mph /  1.6km/h 4mph /  6.4km/h 90% 0.00in /  0mm 0 W/m2
00:30 36.9 °F /  2.7 °C 34.2 °F /  1.2 °C 30.26in /  1024.6hPa SW 1mph /  1.6km/h 3mph /  4.8km/h 90% 0.00in /  0mm 0 W/m2
00:40 36.9 °F /  2.7 °C 34.2 °F /  1.2 °C 30.26in /  1024.6hPa ENE 3mph /  4.8km/h 6mph /  9.7km/h 90% 0.00in /  0mm 0 W/m2
00:50 37.2 °F /  2.9 °C 34.6 °F /  1.4 °C 30.26in /  1024.6hPa ESE 3mph /  4.8km/h 6mph /  9.7km/h 90% 0.00in /  0mm 0 W/m2
01:00 36.5 °F /  2.5 °C 33.8 °F /  1 °C 30.25in /  1024.3hPa NNE 3mph /  4.8km/h 8mph /  12.9km/h 90% 0.00in /  0mm 0 W/m2
01:10 36.9 °F /  2.7 °C 34.2 °F /  1.2 °C 30.25in /  1024.3hPa East 1mph /  1.6km/h 8mph /  12.9km/h 90% 0.00in /  0mm 0 W/m2
01:20 36.7 °F /  2.6 °C 34 °F /  1.1 °C 30.25in /  1024.3hPa ENE 1mph /  1.6km/h 5mph /  8km/h 90% 0.00in /  0mm 0 W/m2
01:30 36.5 °F /  2.5 °C 33.8 °F /  1 °C 30.25in /  1024.3hPa SE 1mph /  1.6km/h 4mph /  6.4km/h 90% 0.00in /  0mm 0 W/m2
01:40 36.5 °F /  2.5 °C 33.8 °F /  1 °C 30.25in /  1024.3hPa SSW 1mph /  1.6km/h 7mph /  11.3km/h 90% 0.00in /  0mm 0 W/m2
01:50 36.3 °F /  2.4 °C 33.7 °F /  0.9 °C 30.25in /  1024.3hPa SW 1mph /  1.6km/h 7mph /  11.3km/h 90% 0.00in /  0mm 0 W/m2
02:00 36.3 °F /  2.4 °C 33.7 °F /  0.9 °C 30.25in /  1024.3hPa ESE 1mph /  1.6km/h 7mph /  11.3km/h 90% 0.00in /  0mm 0 W/m2
02:10 36.3 °F /  2.4 °C 33.7 °F /  0.9 °C 30.25in /  1024.3hPa NNE 1mph /  1.6km/h 4mph /  6.4km/h 90% 0.00in /  0mm 0 W/m2
02:20 36.3 °F /  2.4 °C 33.7 °F /  0.9 °C 30.25in /  1024.3hPa West 1mph /  1.6km/h 3mph /  4.8km/h 90% 0.00in /  0mm 0 W/m2
02:30 36.1 °F /  2.3 °C 33.5 °F /  0.8 °C 30.25in /  1024.3hPa Calm   3mph /  4.8km/h 90% 0.00in /  0mm 0 W/m2
02:40 36.1 °F /  2.3 °C 33.8 °F /  1 °C 30.24in /  1023.9hPa SE 1mph /  1.6km/h 6mph /  9.7km/h 91% 0.00in /  0mm 0 W/m2
02:50 36.1 °F /  2.3 °C 33.5 °F /  0.8 °C 30.24in /  1023.9hPa SE 1mph /  1.6km/h 5mph /  8km/h 90% 0.00in /  0mm 0 W/m2
03:00 35.8 °F /  2.1 °C 33.1 °F /  0.6 °C 30.24in /  1023.9hPa NNE 3mph /  4.8km/h 6mph /  9.7km/h 90% 0.00in /  0mm 0 W/m2
03:10 35.4 °F /  1.9 °C 32.8 °F /  0.4 °C 30.23in /  1023.6hPa North 2mph /  3.2km/h 4mph /  6.4km/h 90% 0.00in /  0mm 0 W/m2
03:20 35.4 °F /  1.9 °C 33.1 °F /  0.6 °C 30.24in /  1023.9hPa North 1mph /  1.6km/h 4mph /  6.4km/h 91% 0.00in /  0mm 0 W/m2
03:30 35.8 °F /  2.1 °C 33.4 °F /  0.8 °C 30.23in /  1023.6hPa NE 3mph /  4.8km/h 6mph /  9.7km/h 91% 0.00in /  0mm 0 W/m2
03:40 36 °F /  2.2 °C 33.6 °F /  0.9 °C 30.23in /  1023.6hPa East 3mph /  4.8km/h 7mph /  11.3km/h 91% 0.00in /  0mm 0 W/m2
03:50 36 °F /  2.2 °C 33.3 °F /  0.7 °C 30.23in /  1023.6hPa SE 1mph /  1.6km/h 8mph /  12.9km/h 90% 0.00in /  0mm 0 W/m2
04:00 36.2 °F /  2.3 °C 33.5 °F /  0.8 °C 30.23in /  1023.6hPa Calm   10mph /  16.1km/h 90% 0.00in /  0mm 0 W/m2
04:10 36.1 °F /  2.3 °C 33.8 °F /  1 °C 30.23in /  1023.6hPa SSE 1mph /  1.6km/h 7mph /  11.3km/h 91% 0.00in /  0mm 0 W/m2
04:20 36 °F /  2.2 °C 33.6 °F /  0.9 °C 30.23in /  1023.6hPa Calm   5mph /  8km/h 91% 0.00in /  0mm 0 W/m2
04:30 36.5 °F /  2.5 °C 34.1 °F /  1.2 °C 30.23in /  1023.6hPa SE 3mph /  4.8km/h 15mph /  24.1km/h 91% 0.00in /  0mm 0 W/m2
04:40 36.7 °F /  2.6 °C 34 °F /  1.1 °C 30.23in /  1023.6hPa SSE 5mph /  8km/h 12mph /  19.3km/h 90% 0.00in /  0mm 0 W/m2
04:50 36.9 °F /  2.7 °C 34.2 °F /  1.2 °C 30.23in /  1023.6hPa SE 1mph /  1.6km/h 9mph /  14.5km/h 90% 0.00in /  0mm 0 W/m2
05:00 36.9 °F /  2.7 °C 34.2 °F /  1.2 °C 30.23in /  1023.6hPa SSE 5mph /  8km/h 12mph /  19.3km/h 90% 0.00in /  0mm 0 W/m2
05:10 37.4 °F /  3 °C 34.5 °F /  1.4 °C 30.23in /  1023.6hPa SE 2mph /  3.2km/h 9mph /  14.5km/h 89% 0.00in /  0mm 0 W/m2
05:20 37 °F /  2.8 °C 34.1 °F /  1.2 °C 30.23in /  1023.6hPa SSE 2mph /  3.2km/h 7mph /  11.3km/h 89% 0.00in /  0mm 0 W/m2
05:30 36.5 °F /  2.5 °C 33.8 °F /  1 °C 30.23in /  1023.6hPa SSE 1mph /  1.6km/h 8mph /  12.9km/h 90% 0.00in /  0mm 0 W/m2
05:40 37.2 °F /  2.9 °C 34.6 °F /  1.4 °C 30.23in /  1023.6hPa SE 7mph /  11.3km/h 12mph /  19.3km/h 90% 0.00in /  0mm 0 W/m2
05:50 37.6 °F /  3.1 °C 34.6 °F /  1.4 °C 30.23in /  1023.6hPa SSE 1mph /  1.6km/h 12mph /  19.3km/h 89% 0.00in /  0mm 0 W/m2
06:00 37.4 °F /  3 °C 34.5 °F /  1.4 °C 30.24in /  1023.9hPa SW 2mph /  3.2km/h 6mph /  9.7km/h 89% 0.00in /  0mm 0 W/m2
06:10 37.2 °F /  2.9 °C 34.3 °F /  1.3 °C 30.24in /  1023.9hPa SW 1mph /  1.6km/h 5mph /  8km/h 89% 0.00in /  0mm 0 W/m2
06:20 37.4 °F /  3 °C 34.5 °F /  1.4 °C 30.24in /  1023.9hPa SSW 2mph /  3.2km/h 7mph /  11.3km/h 89% 0.00in /  0mm 0 W/m2
06:30 37.8 °F /  3.2 °C 34.5 °F /  1.4 °C 30.24in /  1023.9hPa South 3mph /  4.8km/h 7mph /  11.3km/h 88% 0.00in /  0mm 0 W/m2
06:40 37.8 °F /  3.2 °C 34.5 °F /  1.4 °C 30.24in /  1023.9hPa South 1mph /  1.6km/h 7mph /  11.3km/h 88% 0.00in /  0mm 0 W/m2
06:50 37.4 °F /  3 °C 34.2 °F /  1.2 °C 30.24in /  1023.9hPa SSE 3mph /  4.8km/h 6mph /  9.7km/h 88% 0.00in /  0mm 0 W/m2
07:00 37.6 °F /  3.1 °C 34.4 °F /  1.3 °C 30.24in /  1023.9hPa South 3mph /  4.8km/h 8mph /  12.9km/h 88% 0.00in /  0mm 2 W/m2
07:10 37.9 °F /  3.3 °C 34.7 °F /  1.5 °C 30.24in /  1023.9hPa SSE 2mph /  3.2km/h 8mph /  12.9km/h 88% 0.00in /  0mm 3 W/m2
07:20 38.1 °F /  3.4 °C 34.9 °F /  1.6 °C 30.24in /  1023.9hPa South 2mph /  3.2km/h 6mph /  9.7km/h 88% 0.00in /  0mm 13 W/m2
07:30 37.4 °F /  3 °C 34.2 °F /  1.2 °C 30.24in /  1023.9hPa SSW 3mph /  4.8km/h 7mph /  11.3km/h 88% 0.00in /  0mm 23 W/m2
07:40 37.2 °F /  2.9 °C 34 °F /  1.1 °C 30.24in /  1023.9hPa SW 1mph /  1.6km/h 6mph /  9.7km/h 88% 0.00in /  0mm 35 W/m2
07:50 37 °F /  2.8 °C 34.1 °F /  1.2 °C 30.24in /  1023.9hPa SW 1mph /  1.6km/h 5mph /  8km/h 89% 0.00in /  0mm 47 W/m2
08:00 37.2 °F /  2.9 °C 34.3 °F /  1.3 °C 30.24in /  1023.9hPa South 3mph /  4.8km/h 8mph /  12.9km/h 89% 0.00in /  0mm 59 W/m2
08:10 37.8 °F /  3.2 °C 34.5 °F /  1.4 °C 30.24in /  1023.9hPa South 3mph /  4.8km/h 8mph /  12.9km/h 88% 0.00in /  0mm 71 W/m2
08:20 38.1 °F /  3.4 °C 34.9 °F /  1.6 °C 30.24in /  1023.9hPa South 3mph /  4.8km/h 8mph /  12.9km/h 88% 0.00in /  0mm 85 W/m2
08:30 38.7 °F /  3.7 °C 34.8 °F /  1.6 °C 30.24in /  1023.9hPa SSE 3mph /  4.8km/h 7mph /  11.3km/h 86% 0.00in /  0mm 100 W/m2
08:40 39 °F /  3.9 °C 35.2 °F /  1.8 °C 30.24in /  1023.9hPa SSE 2mph /  3.2km/h 7mph /  11.3km/h 86% 0.00in /  0mm 117 W/m2
08:50 39.4 °F /  4.1 °C 35.2 °F /  1.8 °C 30.24in /  1023.9hPa SSE 5mph /  8km/h 10mph /  16.1km/h 85% 0.00in /  0mm 136 W/m2
09:00 39.7 °F /  4.3 °C 35.6 °F /  2 °C 30.24in /  1023.9hPa SSW 3mph /  4.8km/h 7mph /  11.3km/h 85% 0.00in /  0mm 149 W/m2
09:10 40.1 °F /  4.5 °C 35.7 °F /  2.1 °C 30.24in /  1023.9hPa SW 2mph /  3.2km/h 7mph /  11.3km/h 84% 0.00in /  0mm 163 W/m2
09:20 40.5 °F /  4.7 °C 36 °F /  2.2 °C 30.24in /  1023.9hPa WSW 2mph /  3.2km/h 6mph /  9.7km/h 84% 0.00in /  0mm 181 W/m2
09:30 41 °F /  5 °C 36.3 °F /  2.4 °C 30.24in /  1023.9hPa WSW 2mph /  3.2km/h 7mph /  11.3km/h 83% 0.00in /  0mm 201 W/m2
09:40 41.6 °F /  5.3 °C 36.2 °F /  2.3 °C 30.24in /  1023.9hPa SW 3mph /  4.8km/h 8mph /  12.9km/h 81% 0.00in /  0mm 217 W/m2
09:50 42.3 °F /  5.7 °C 36.5 °F /  2.5 °C 30.24in /  1023.9hPa SSW 3mph /  4.8km/h 8mph /  12.9km/h 80% 0.00in /  0mm 233 W/m2
10:00 42.8 °F /  6 °C 37.1 °F /  2.8 °C 30.25in /  1024.3hPa Calm   6mph /  9.7km/h 80% 0.00in /  0mm 238 W/m2
10:10 43.3 °F /  6.3 °C 37.3 °F /  2.9 °C 30.24in /  1023.9hPa SSW 1mph /  1.6km/h 5mph /  8km/h 79% 0.00in /  0mm 251 W/m2
10:20 43.7 °F /  6.5 °C 37.3 °F /  2.9 °C 30.24in /  1023.9hPa SSE 3mph /  4.8km/h 11mph /  17.7km/h 78% 0.00in /  0mm 252 W/m2
10:30 44.1 °F /  6.7 °C 37.6 °F /  3.1 °C 30.23in /  1023.6hPa SSE 5mph /  8km/h 13mph /  20.9km/h 78% 0.00in /  0mm 245 W/m2
10:40 44.2 °F /  6.8 °C 37.5 °F /  3.1 °C 30.23in /  1023.6hPa SE 5mph /  8km/h 12mph /  19.3km/h 77% 0.00in /  0mm 248 W/m2
10:50 44.8 °F /  7.1 °C 38 °F /  3.3 °C 30.23in /  1023.6hPa SE 5mph /  8km/h 12mph /  19.3km/h 77% 0.00in /  0mm 250 W/m2
11:00 45.1 °F /  7.3 °C 38.4 °F /  3.6 °C 30.23in /  1023.6hPa SSE 2mph /  3.2km/h 9mph /  14.5km/h 77% 0.00in /  0mm 270 W/m2
11:10 45.7 °F /  7.6 °C 38.2 °F /  3.4 °C 30.22in /  1023.2hPa SE 5mph /  8km/h 14mph /  22.5km/h 75% 0.00in /  0mm 308 W/m2
11:20 46 °F /  7.8 °C 38.2 °F /  3.4 °C 30.22in /  1023.2hPa SSE 5mph /  8km/h 13mph /  20.9km/h 74% 0.00in /  0mm 308 W/m2
11:30 46.3 °F /  7.9 °C 38.4 °F /  3.6 °C 30.22in /  1023.2hPa SE 6mph /  9.7km/h 11mph /  17.7km/h 74% 0.00in /  0mm 287 W/m2
11:40 46.6 °F /  8.1 °C 38.7 °F /  3.7 °C 30.21in /  1022.9hPa SE 5mph /  8km/h 11mph /  17.7km/h 74% 0.00in /  0mm 301 W/m2
11:50 46.9 °F /  8.3 °C 39.1 °F /  3.9 °C 30.21in /  1022.9hPa SE 6mph /  9.7km/h 12mph /  19.3km/h 74% 0.00in /  0mm 292 W/m2
12:00 47.1 °F /  8.4 °C 38.9 °F /  3.8 °C 30.21in /  1022.9hPa SE 3mph /  4.8km/h 14mph /  22.5km/h 73% 0.00in /  0mm 288 W/m2
12:10 47.3 °F /  8.5 °C 39.1 °F /  3.9 °C 30.21in /  1022.9hPa SE 7mph /  11.3km/h 13mph /  20.9km/h 73% 0.00in /  0mm 322 W/m2
12:20 47.5 °F /  8.6 °C 39.3 °F /  4.1 °C 30.20in /  1022.6hPa SE 5mph /  8km/h 12mph /  19.3km/h 73% 0.00in /  0mm 309 W/m2
12:30 47.5 °F /  8.6 °C 38.9 °F /  3.8 °C 30.20in /  1022.6hPa SE 5mph /  8km/h 12mph /  19.3km/h 72% 0.00in /  0mm 289 W/m2
12:40 47.7 °F /  8.7 °C 39.4 °F /  4.1 °C 30.19in /  1022.2hPa SSE 2mph /  3.2km/h 12mph /  19.3km/h 73% 0.00in /  0mm 301 W/m2
12:50 48.1 °F /  8.9 °C 39.5 °F /  4.2 °C 30.19in /  1022.2hPa SE 3mph /  4.8km/h 9mph /  14.5km/h 72% 0.00in /  0mm 294 W/m2
13:00 48.6 °F /  9.2 °C 39.9 °F /  4.4 °C 30.19in /  1022.2hPa SSE 3mph /  4.8km/h 8mph /  12.9km/h 72% 0.00in /  0mm 317 W/m2
13:10 48.7 °F /  9.3 °C 40.1 °F /  4.5 °C 30.19in /  1022.2hPa SSE 5mph /  8km/h 12mph /  19.3km/h 72% 0.00in /  0mm 299 W/m2
13:20 48.7 °F /  9.3 °C 39.4 °F /  4.1 °C 30.19in /  1022.2hPa SSE 2mph /  3.2km/h 10mph /  16.1km/h 70% 0.00in /  0mm 248 W/m2
13:30 48.9 °F /  9.4 °C 39.6 °F /  4.2 °C 30.18in /  1021.9hPa South 2mph /  3.2km/h 6mph /  9.7km/h 70% 0.00in /  0mm 227 W/m2
13:40 49 °F /  9.4 °C 40.3 °F /  4.6 °C 30.18in /  1021.9hPa SW 2mph /  3.2km/h 5mph /  8km/h 72% 0.00in /  0mm 236 W/m2
13:50 49.3 °F /  9.6 °C 39.9 °F /  4.4 °C 30.18in /  1021.9hPa SSW 2mph /  3.2km/h 9mph /  14.5km/h 70% 0.00in /  0mm 252 W/m2
14:00 49.3 °F /  9.6 °C 39.9 °F /  4.4 °C 30.18in /  1021.9hPa SSE 5mph /  8km/h 11mph /  17.7km/h 70% 0.00in /  0mm 250 W/m2
14:10 49.3 °F /  9.6 °C 39.6 °F /  4.2 °C 30.18in /  1021.9hPa SSE 6mph /  9.7km/h 12mph /  19.3km/h 69% 0.00in /  0mm 223 W/m2
14:20 49.5 °F /  9.7 °C 39.7 °F /  4.3 °C 30.18in /  1021.9hPa SSE 5mph /  8km/h 12mph /  19.3km/h 69% 0.00in /  0mm 201 W/m2
14:30 49.5 °F /  9.7 °C 39.7 °F /  4.3 °C 30.18in /  1021.9hPa SE 6mph /  9.7km/h 12mph /  19.3km/h 69% 0.00in /  0mm 192 W/m2
14:40 49.6 °F /  9.8 °C 39.9 °F /  4.4 °C 30.17in /  1021.6hPa SE 3mph /  4.8km/h 12mph /  19.3km/h 69% 0.00in /  0mm 171 W/m2
14:50 49.6 °F /  9.8 °C 39.9 °F /  4.4 °C 30.17in /  1021.6hPa SE 6mph /  9.7km/h 13mph /  20.9km/h 69% 0.00in /  0mm 151 W/m2
15:00 49.6 °F /  9.8 °C 39.5 °F /  4.2 °C 30.17in /  1021.6hPa SE 6mph /  9.7km/h 12mph /  19.3km/h 68% 0.00in /  0mm 130 W/m2
15:10 49.5 °F /  9.7 °C 39.4 °F /  4.1 °C 30.17in /  1021.6hPa SE 6mph /  9.7km/h 14mph /  22.5km/h 68% 0.00in /  0mm 109 W/m2
15:20 49.3 °F /  9.6 °C 39.5 °F /  4.2 °C 30.17in /  1021.6hPa SE 6mph /  9.7km/h 12mph /  19.3km/h 69% 0.00in /  0mm 88 W/m2
15:30 49.3 °F /  9.6 °C 39.5 °F /  4.2 °C 30.17in /  1021.6hPa SSE 2mph /  3.2km/h 9mph /  14.5km/h 69% 0.00in /  0mm 68 W/m2
15:40 49.1 °F /  9.5 °C 39.4 °F /  4.1 °C 30.17in /  1021.6hPa SW 2mph /  3.2km/h 6mph /  9.7km/h 69% 0.00in /  0mm 49 W/m2
15:50 48.9 °F /  9.4 °C 39.2 °F /  4 °C 30.18in /  1021.9hPa SSW 2mph /  3.2km/h 6mph /  9.7km/h 69% 0.00in /  0mm 31 W/m2
16:00 48.7 °F /  9.3 °C 39.4 °F /  4.1 °C 30.18in /  1021.9hPa SW 1mph /  1.6km/h 6mph /  9.7km/h 70% 0.00in /  0mm 14 W/m2
16:10 48.4 °F /  9.1 °C 39 °F /  3.9 °C 30.18in /  1021.9hPa SSW 2mph /  3.2km/h 6mph /  9.7km/h 70% 0.00in /  0mm 16 W/m2
16:20 47.8 °F /  8.8 °C 38.5 °F /  3.6 °C 30.18in /  1021.9hPa Calm   4mph /  6.4km/h 70% 0.00in /  0mm 8 W/m2
16:30 47.3 °F /  8.5 °C 38.7 °F /  3.7 °C 30.18in /  1021.9hPa SW 1mph /  1.6km/h 3mph /  4.8km/h 72% 0.00in /  0mm 0 W/m2
16:40 46.8 °F /  8.2 °C 38.2 °F /  3.4 °C 30.19in /  1022.2hPa SW 2mph /  3.2km/h 6mph /  9.7km/h 72% 0.00in /  0mm 0 W/m2
16:50 46.4 °F /  8 °C 38.2 °F /  3.4 °C 30.19in /  1022.2hPa SSW 3mph /  4.8km/h 7mph /  11.3km/h 73% 0.00in /  0mm 0 W/m2
17:00 46.6 °F /  8.1 °C 38 °F /  3.3 °C 30.19in /  1022.2hPa South 2mph /  3.2km/h 15mph /  24.1km/h 72% 0.00in /  0mm 0 W/m2
17:10 46.2 °F /  7.9 °C 38 °F /  3.3 °C 30.19in /  1022.2hPa SE 3mph /  4.8km/h 12mph /  19.3km/h 73% 0.00in /  0mm 0 W/m2
17:20 46 °F /  7.8 °C 37.9 °F /  3.3 °C 30.19in /  1022.2hPa South 2mph /  3.2km/h 6mph /  9.7km/h 73% 0.00in /  0mm 0 W/m2
17:30 45.1 °F /  7.3 °C 37.3 °F /  2.9 °C 30.19in /  1022.2hPa SSW 1mph /  1.6km/h 5mph /  8km/h 74% 0.00in /  0mm 0 W/m2
17:40 44.6 °F /  7 °C 37.2 °F /  2.9 °C 30.19in /  1022.2hPa SSE 5mph /  8km/h 9mph /  14.5km/h 75% 0.00in /  0mm 0 W/m2
17:50 44.8 °F /  7.1 °C 37.3 °F /  2.9 °C 30.19in /  1022.2hPa SSE 3mph /  4.8km/h 10mph /  16.1km/h 75% 0.00in /  0mm 0 W/m2
18:00 44.8 °F /  7.1 °C 37.3 °F /  2.9 °C 30.19in /  1022.2hPa SSE 3mph /  4.8km/h 7mph /  11.3km/h 75% 0.00in /  0mm 0 W/m2
18:10 44.5 °F /  6.9 °C 37.1 °F /  2.8 °C 30.19in /  1022.2hPa South 1mph /  1.6km/h 8mph /  12.9km/h 75% 0.00in /  0mm 0 W/m2
18:20 43.9 °F /  6.6 °C 37.1 °F /  2.8 °C 30.19in /  1022.2hPa SSW 2mph /  3.2km/h 6mph /  9.7km/h 77% 0.00in /  0mm 0 W/m2
18:30 43.5 °F /  6.4 °C 37.1 °F /  2.8 °C 30.19in /  1022.2hPa South 2mph /  3.2km/h 5mph /  8km/h 78% 0.00in /  0mm 0 W/m2
18:40 43.5 °F /  6.4 °C 37.1 °F /  2.8 °C 30.19in /  1022.2hPa South 2mph /  3.2km/h 7mph /  11.3km/h 78% 0.00in /  0mm 0 W/m2
18:50 43.3 °F /  6.3 °C 36.9 °F /  2.7 °C 30.19in /  1022.2hPa SSE 3mph /  4.8km/h 8mph /  12.9km/h 78% 0.00in /  0mm 0 W/m2
19:00 43.7 °F /  6.5 °C 37.6 °F /  3.1 °C 30.19in /  1022.2hPa SSE 1mph /  1.6km/h 8mph /  12.9km/h 79% 0.00in /  0mm 0 W/m2
19:10 43.9 °F /  6.6 °C 37.5 °F /  3.1 °C 30.19in /  1022.2hPa SSE 5mph /  8km/h 7mph /  11.3km/h 78% 0.00in /  0mm 0 W/m2
19:20 43.7 °F /  6.5 °C 37.3 °F /  2.9 °C 30.19in /  1022.2hPa South 3mph /  4.8km/h 7mph /  11.3km/h 78% 0.00in /  0mm 0 W/m2
19:30 43.5 °F /  6.4 °C 37.4 °F /  3 °C 30.19in /  1022.2hPa South 2mph /  3.2km/h 7mph /  11.3km/h 79% 0.00in /  0mm 0 W/m2
19:40 43.3 °F /  6.3 °C 37.3 °F /  2.9 °C 30.19in /  1022.2hPa SSE 5mph /  8km/h 7mph /  11.3km/h 79% 0.00in /  0mm 0 W/m2
19:50 43.2 °F /  6.2 °C 37.1 °F /  2.8 °C 30.19in /  1022.2hPa SSW 1mph /  1.6km/h 6mph /  9.7km/h 79% 0.00in /  0mm 0 W/m2
20:00 43.6 °F /  6.4 °C 37.5 °F /  3.1 °C 30.19in /  1022.2hPa SE 5mph /  8km/h 9mph /  14.5km/h 79% 0.00in /  0mm 0 W/m2
20:10 43.7 °F /  6.5 °C 37.6 °F /  3.1 °C 30.19in /  1022.2hPa SE 3mph /  4.8km/h 8mph /  12.9km/h 79% 0.00in /  0mm 0 W/m2
20:20 43.2 °F /  6.2 °C 37.1 °F /  2.8 °C 30.19in /  1022.2hPa SE 1mph /  1.6km/h 10mph /  16.1km/h 79% 0.00in /  0mm 0 W/m2
20:30 42.6 °F /  5.9 °C 36.9 °F /  2.7 °C 30.19in /  1022.2hPa SSE 1mph /  1.6km/h 5mph /  8km/h 80% 0.00in /  0mm 0 W/m2
20:40 42.2 °F /  5.7 °C 36.8 °F /  2.7 °C 30.19in /  1022.2hPa ESE 3mph /  4.8km/h 6mph /  9.7km/h 81% 0.00in /  0mm 0 W/m2
20:50 42.1 °F /  5.6 °C 36.7 °F /  2.6 °C 30.19in /  1022.2hPa SSE 2mph /  3.2km/h 12mph /  19.3km/h 81% 0.00in /  0mm 0 W/m2
21:00 42.6 °F /  5.9 °C 37.2 °F /  2.9 °C 30.19in /  1022.2hPa SE 6mph /  9.7km/h 9mph /  14.5km/h 81% 0.00in /  0mm 0 W/m2
21:10 43 °F /  6.1 °C 37.2 °F /  2.9 °C 30.19in /  1022.2hPa SE 3mph /  4.8km/h 11mph /  17.7km/h 80% 0.00in /  0mm 0 W/m2
21:20 43 °F /  6.1 °C 37.2 °F /  2.9 °C 30.19in /  1022.2hPa SE 2mph /  3.2km/h 8mph /  12.9km/h 80% 0.00in /  0mm 0 W/m2
21:30 43.2 °F /  6.2 °C 37.4 °F /  3 °C 30.19in /  1022.2hPa SE 5mph /  8km/h 8mph /  12.9km/h 80% 0.00in /  0mm 0 W/m2
21:40 43.2 °F /  6.2 °C 37.4 °F /  3 °C 30.19in /  1022.2hPa SE 3mph /  4.8km/h 8mph /  12.9km/h 80% 0.00in /  0mm 0 W/m2
21:50 43 °F /  6.1 °C 37.2 °F /  2.9 °C 30.19in /  1022.2hPa SSE 3mph /  4.8km/h 7mph /  11.3km/h 80% 0.00in /  0mm 0 W/m2
22:00 42.8 °F /  6 °C 37.1 °F /  2.8 °C 30.19in /  1022.2hPa SSE 2mph /  3.2km/h 7mph /  11.3km/h 80% 0.00in /  0mm 0 W/m2
22:10 42.8 °F /  6 °C 37.1 °F /  2.8 °C 30.19in /  1022.2hPa SSE 2mph /  3.2km/h 8mph /  12.9km/h 80% 0.00in /  0mm 0 W/m2
22:20 42.8 °F /  6 °C 37.1 °F /  2.8 °C 30.19in /  1022.2hPa SSE 3mph /  4.8km/h 8mph /  12.9km/h 80% 0.00in /  0mm 0 W/m2
22:30 42.6 °F /  5.9 °C 36.9 °F /  2.7 °C 30.19in /  1022.2hPa SSE 1mph /  1.6km/h 6mph /  9.7km/h 80% 0.00in /  0mm 0 W/m2
22:40 42.4 °F /  5.8 °C 37 °F /  2.8 °C 30.19in /  1022.2hPa South 3mph /  4.8km/h 7mph /  11.3km/h 81% 0.00in /  0mm 0 W/m2
22:50 42.1 °F /  5.6 °C 36.7 °F /  2.6 °C 30.19in /  1022.2hPa South 1mph /  1.6km/h 8mph /  12.9km/h 81% 0.00in /  0mm 0 W/m2
23:00 41.2 °F /  5.1 °C 36.1 °F /  2.3 °C 30.19in /  1022.2hPa SSW 1mph /  1.6km/h 6mph /  9.7km/h 82% 0.00in /  0mm 0 W/m2
23:10 40.8 °F /  4.9 °C 36.1 °F /  2.3 °C 30.19in /  1022.2hPa South 2mph /  3.2km/h 7mph /  11.3km/h 83% 0.00in /  0mm 0 W/m2
23:20 40.1 °F /  4.5 °C 35.7 °F /  2.1 °C 30.19in /  1022.2hPa South 1mph /  1.6km/h 5mph /  8km/h 84% 0.00in /  0mm 0 W/m2
23:30 39.3 °F /  4.1 °C 34.9 °F /  1.6 °C 30.19in /  1022.2hPa WSW 2mph /  3.2km/h 5mph /  8km/h 84% 0.00in /  0mm 0 W/m2
23:40 39 °F /  3.9 °C 35.1 °F /  1.7 °C 30.18in /  1021.9hPa SW 3mph /  4.8km/h 7mph /  11.3km/h 86% 0.00in /  0mm 0 W/m2
23:50 38.8 °F /  3.8 °C 35 °F /  1.7 °C 30.18in /  1021.9hPa South 2mph /  3.2km/h 5mph /  8km/h 86% 0.00in /  0mm 0 W/m2
Knjazevac, Serbia
Compliments of Weather Underground - 2 mb